sensor_id;sensor_type;location;lat;lon;timestamp;temperature;humidity
61591;DHT22;57639;52.410;-1.966;2022-09-02T00:00:52;20.70;59.30
61591;DHT22;57639;52.410;-1.966;2022-09-02T00:04:06;20.70;59.30
61591;DHT22;57639;52.410;-1.966;2022-09-02T00:07:14;20.80;59.30
61591;DHT22;57639;52.410;-1.966;2022-09-02T00:10:22;20.70;59.20
61591;DHT22;57639;52.410;-1.966;2022-09-02T00:13:29;20.70;59.10
61591;DHT22;57639;52.410;-1.966;2022-09-02T00:16:40;20.80;59.20
61591;DHT22;57639;52.410;-1.966;2022-09-02T00:19:48;20.80;59.20
61591;DHT22;57639;52.410;-1.966;2022-09-02T00:22:59;20.70;59.20
61591;DHT22;57639;52.410;-1.966;2022-09-02T00:26:07;20.80;59.20
61591;DHT22;57639;52.410;-1.966;2022-09-02T00:29:15;20.80;59.10
61591;DHT22;57639;52.410;-1.966;2022-09-02T00:32:26;20.80;59.10
61591;DHT22;57639;52.410;-1.966;2022-09-02T00:35:34;20.80;59.10
61591;DHT22;57639;52.410;-1.966;2022-09-02T00:38:42;20.80;59.10
61591;DHT22;57639;52.410;-1.966;2022-09-02T00:41:49;20.80;59.10
61591;DHT22;57639;52.410;-1.966;2022-09-02T00:44:57;20.70;59.10
61591;DHT22;57639;52.410;-1.966;2022-09-02T00:48:08;20.70;59.10
61591;DHT22;57639;52.410;-1.966;2022-09-02T00:51:16;20.70;59.30
61591;DHT22;57639;52.410;-1.966;2022-09-02T00:54:26;20.70;59.40
61591;DHT22;57639;52.410;-1.966;2022-09-02T00:57:37;20.70;59.30
61591;DHT22;57639;52.410;-1.966;2022-09-02T01:00:48;20.70;59.30
61591;DHT22;57639;52.410;-1.966;2022-09-02T01:04:02;20.70;59.20
61591;DHT22;57639;52.410;-1.966;2022-09-02T01:07:10;20.70;59.20
61591;DHT22;57639;52.410;-1.966;2022-09-02T01:10:21;20.70;59.10
61591;DHT22;57639;52.410;-1.966;2022-09-02T01:13:30;20.70;59.30
61591;DHT22;57639;52.410;-1.966;2022-09-02T01:16:40;20.70;59.20
61591;DHT22;57639;52.410;-1.966;2022-09-02T01:19:56;20.60;59.30
61591;DHT22;57639;52.410;-1.966;2022-09-02T01:23:09;20.70;59.30
61591;DHT22;57639;52.410;-1.966;2022-09-02T01:26:19;20.60;59.30
61591;DHT22;57639;52.410;-1.966;2022-09-02T01:29:42;20.70;59.40
61591;DHT22;57639;52.410;-1.966;2022-09-02T01:33:13;20.70;59.40
61591;DHT22;57639;52.410;-1.966;2022-09-02T01:36:21;20.70;59.30
61591;DHT22;57639;52.410;-1.966;2022-09-02T01:39:37;20.70;59.40
61591;DHT22;57639;52.410;-1.966;2022-09-02T01:42:47;20.70;59.30
61591;DHT22;57639;52.410;-1.966;2022-09-02T01:45:56;20.70;59.30
61591;DHT22;57639;52.410;-1.966;2022-09-02T01:49:04;20.70;59.30
61591;DHT22;57639;52.410;-1.966;2022-09-02T01:52:13;20.70;59.30
61591;DHT22;57639;52.410;-1.966;2022-09-02T01:55:24;20.70;59.30
61591;DHT22;57639;52.410;-1.966;2022-09-02T01:58:31;20.70;59.30
61591;DHT22;57639;52.410;-1.966;2022-09-02T02:01:39;20.70;59.30
61591;DHT22;57639;52.410;-1.966;2022-09-02T02:04:47;20.70;59.30
61591;DHT22;57639;52.410;-1.966;2022-09-02T02:07:55;20.70;59.40
61591;DHT22;57639;52.410;-1.966;2022-09-02T02:11:06;20.70;59.40
61591;DHT22;57639;52.410;-1.966;2022-09-02T02:14:13;20.70;59.40
61591;DHT22;57639;52.410;-1.966;2022-09-02T02:17:21;20.60;59.40
61591;DHT22;57639;52.410;-1.966;2022-09-02T02:20:35;20.60;59.50
61591;DHT22;57639;52.410;-1.966;2022-09-02T02:23:45;20.60;59.60
61591;DHT22;57639;52.410;-1.966;2022-09-02T02:26:56;20.70;59.50
61591;DHT22;57639;52.410;-1.966;2022-09-02T02:30:05;20.60;59.50
61591;DHT22;57639;52.410;-1.966;2022-09-02T02:33:13;20.70;59.50
61591;DHT22;57639;52.410;-1.966;2022-09-02T02:36:24;20.70;59.40
61591;DHT22;57639;52.410;-1.966;2022-09-02T02:39:32;20.70;59.40
61591;DHT22;57639;52.410;-1.966;2022-09-02T02:42:42;20.60;59.30
61591;DHT22;57639;52.410;-1.966;2022-09-02T02:45:49;20.60;59.40
61591;DHT22;57639;52.410;-1.966;2022-09-02T02:48:58;20.60;59.40
61591;DHT22;57639;52.410;-1.966;2022-09-02T02:52:06;20.60;59.50
61591;DHT22;57639;52.410;-1.966;2022-09-02T02:55:15;20.60;59.50
61591;DHT22;57639;52.410;-1.966;2022-09-02T02:58:26;20.60;59.50
61591;DHT22;57639;52.410;-1.966;2022-09-02T03:01:34;20.60;59.50
61591;DHT22;57639;52.410;-1.966;2022-09-02T03:04:42;20.60;59.60
61591;DHT22;57639;52.410;-1.966;2022-09-02T03:07:49;20.60;59.60
61591;DHT22;57639;52.410;-1.966;2022-09-02T03:10:56;20.60;59.60
61591;DHT22;57639;52.410;-1.966;2022-09-02T03:14:07;20.60;59.50
61591;DHT22;57639;52.410;-1.966;2022-09-02T03:17:15;20.60;59.60
61591;DHT22;57639;52.410;-1.966;2022-09-02T03:20:23;20.60;59.70
61591;DHT22;57639;52.410;-1.966;2022-09-02T03:23:31;20.60;59.70
61591;DHT22;57639;52.410;-1.966;2022-09-02T03:26:40;20.60;59.70
61591;DHT22;57639;52.410;-1.966;2022-09-02T03:29:51;20.60;59.70
61591;DHT22;57639;52.410;-1.966;2022-09-02T03:33:03;20.60;59.60
61591;DHT22;57639;52.410;-1.966;2022-09-02T03:36:19;20.60;59.70
61591;DHT22;57639;52.410;-1.966;2022-09-02T03:39:26;20.60;59.70
61591;DHT22;57639;52.410;-1.966;2022-09-02T03:42:34;20.60;59.70
61591;DHT22;57639;52.410;-1.966;2022-09-02T03:45:45;20.60;59.60
61591;DHT22;57639;52.410;-1.966;2022-09-02T03:48:53;20.60;59.60
61591;DHT22;57639;52.410;-1.966;2022-09-02T03:52:01;20.60;59.70
61591;DHT22;57639;52.410;-1.966;2022-09-02T03:55:10;20.60;59.70
61591;DHT22;57639;52.410;-1.966;2022-09-02T03:58:18;20.60;59.70
61591;DHT22;57639;52.410;-1.966;2022-09-02T04:01:29;20.60;59.70
61591;DHT22;57639;52.410;-1.966;2022-09-02T04:04:38;20.60;59.70
61591;DHT22;57639;52.410;-1.966;2022-09-02T04:07:45;20.60;59.80
61591;DHT22;57639;52.410;-1.966;2022-09-02T04:10:54;20.60;59.70
61591;DHT22;57639;52.410;-1.966;2022-09-02T04:14:03;20.50;59.70
61591;DHT22;57639;52.410;-1.966;2022-09-02T04:17:14;20.50;59.80
61591;DHT22;57639;52.410;-1.966;2022-09-02T04:20:21;20.50;59.80
61591;DHT22;57639;52.410;-1.966;2022-09-02T04:23:29;20.50;59.70
61591;DHT22;57639;52.410;-1.966;2022-09-02T04:26:37;20.50;59.70
61591;DHT22;57639;52.410;-1.966;2022-09-02T04:29:48;20.50;59.70
61591;DHT22;57639;52.410;-1.966;2022-09-02T04:32:58;20.50;59.80
61591;DHT22;57639;52.410;-1.966;2022-09-02T04:36:07;20.50;59.80
61591;DHT22;57639;52.410;-1.966;2022-09-02T04:39:17;20.50;59.70
61591;DHT22;57639;52.410;-1.966;2022-09-02T04:42:25;20.50;59.80
61591;DHT22;57639;52.410;-1.966;2022-09-02T04:45:32;20.50;59.90
61591;DHT22;57639;52.410;-1.966;2022-09-02T04:48:42;20.60;59.80
61591;DHT22;57639;52.410;-1.966;2022-09-02T04:51:50;20.50;59.80
61591;DHT22;57639;52.410;-1.966;2022-09-02T04:54:57;20.50;59.90
61591;DHT22;57639;52.410;-1.966;2022-09-02T04:58:05;20.60;59.80
61591;DHT22;57639;52.410;-1.966;2022-09-02T05:01:15;20.50;59.80
61591;DHT22;57639;52.410;-1.966;2022-09-02T05:04:27;20.50;60.00
61591;DHT22;57639;52.410;-1.966;2022-09-02T05:07:35;20.60;59.90
61591;DHT22;57639;52.410;-1.966;2022-09-02T05:10:42;20.50;59.90
61591;DHT22;57639;52.410;-1.966;2022-09-02T05:13:55;20.50;59.90
61591;DHT22;57639;52.410;-1.966;2022-09-02T05:17:03;20.50;59.90
61591;DHT22;57639;52.410;-1.966;2022-09-02T05:20:13;20.50;59.90
61591;DHT22;57639;52.410;-1.966;2022-09-02T05:23:21;20.50;59.80
61591;DHT22;57639;52.410;-1.966;2022-09-02T05:26:29;20.50;59.70
61591;DHT22;57639;52.410;-1.966;2022-09-02T05:29:39;20.50;59.70
61591;DHT22;57639;52.410;-1.966;2022-09-02T05:32:48;20.50;59.80
61591;DHT22;57639;52.410;-1.966;2022-09-02T05:36:01;20.50;59.70
61591;DHT22;57639;52.410;-1.966;2022-09-02T05:39:09;20.50;59.80
61591;DHT22;57639;52.410;-1.966;2022-09-02T05:42:17;20.40;59.80
61591;DHT22;57639;52.410;-1.966;2022-09-02T05:45:25;20.40;59.80
61591;DHT22;57639;52.410;-1.966;2022-09-02T05:48:33;20.50;59.80
61591;DHT22;57639;52.410;-1.966;2022-09-02T05:52:14;20.50;59.80
61591;DHT22;57639;52.410;-1.966;2022-09-02T05:55:22;20.50;59.80
61591;DHT22;57639;52.410;-1.966;2022-09-02T05:58:30;20.40;59.80
61591;DHT22;57639;52.410;-1.966;2022-09-02T06:01:37;20.40;59.80
61591;DHT22;57639;52.410;-1.966;2022-09-02T06:04:47;20.40;59.90
61591;DHT22;57639;52.410;-1.966;2022-09-02T06:08:01;20.40;59.80
61591;DHT22;57639;52.410;-1.966;2022-09-02T06:11:10;20.50;59.90
61591;DHT22;57639;52.410;-1.966;2022-09-02T06:14:20;20.50;59.90
61591;DHT22;57639;52.410;-1.966;2022-09-02T06:17:28;20.40;60.00
61591;DHT22;57639;52.410;-1.966;2022-09-02T06:20:39;20.40;59.90
61591;DHT22;57639;52.410;-1.966;2022-09-02T06:23:49;20.50;59.90
61591;DHT22;57639;52.410;-1.966;2022-09-02T06:26:57;20.40;60.00
61591;DHT22;57639;52.410;-1.966;2022-09-02T06:30:05;20.50;60.00
61591;DHT22;57639;52.410;-1.966;2022-09-02T06:33:13;20.50;60.10
61591;DHT22;57639;52.410;-1.966;2022-09-02T06:36:22;20.40;60.10
61591;DHT22;57639;52.410;-1.966;2022-09-02T06:39:34;20.40;60.00
61591;DHT22;57639;52.410;-1.966;2022-09-02T06:42:46;20.50;59.90
61591;DHT22;57639;52.410;-1.966;2022-09-02T06:45:54;20.40;60.00
61591;DHT22;57639;52.410;-1.966;2022-09-02T06:49:02;20.50;59.90
61591;DHT22;57639;52.410;-1.966;2022-09-02T06:52:12;20.40;59.90
61591;DHT22;57639;52.410;-1.966;2022-09-02T06:55:22;20.40;59.90
61591;DHT22;57639;52.410;-1.966;2022-09-02T06:58:30;20.40;59.80
61591;DHT22;57639;52.410;-1.966;2022-09-02T07:01:37;20.40;59.80
61591;DHT22;57639;52.410;-1.966;2022-09-02T07:04:47;20.40;59.90
61591;DHT22;57639;52.410;-1.966;2022-09-02T07:08:10;20.40;59.80
61591;DHT22;57639;52.410;-1.966;2022-09-02T07:11:22;20.30;59.90
61591;DHT22;57639;52.410;-1.966;2022-09-02T07:14:34;20.40;60.00
61591;DHT22;57639;52.410;-1.966;2022-09-02T07:17:42;20.40;60.00
61591;DHT22;57639;52.410;-1.966;2022-09-02T07:20:50;20.40;60.00
61591;DHT22;57639;52.410;-1.966;2022-09-02T07:23:58;20.40;60.00
61591;DHT22;57639;52.410;-1.966;2022-09-02T07:27:08;20.40;60.00
61591;DHT22;57639;52.410;-1.966;2022-09-02T07:30:16;20.40;60.00
61591;DHT22;57639;52.410;-1.966;2022-09-02T07:33:24;20.40;59.90
61591;DHT22;57639;52.410;-1.966;2022-09-02T07:36:32;20.40;59.90
61591;DHT22;57639;52.410;-1.966;2022-09-02T07:39:40;20.50;60.00
61591;DHT22;57639;52.410;-1.966;2022-09-02T07:42:51;20.40;60.10
61591;DHT22;57639;52.410;-1.966;2022-09-02T07:46:04;20.50;60.00
61591;DHT22;57639;52.410;-1.966;2022-09-02T07:49:13;20.50;60.00
61591;DHT22;57639;52.410;-1.966;2022-09-02T07:52:26;20.50;60.10
61591;DHT22;57639;52.410;-1.966;2022-09-02T07:55:35;20.50;60.10
61591;DHT22;57639;52.410;-1.966;2022-09-02T07:58:47;20.50;60.20
61591;DHT22;57639;52.410;-1.966;2022-09-02T08:01:55;20.50;60.10
61591;DHT22;57639;52.410;-1.966;2022-09-02T08:05:03;20.50;60.10
61591;DHT22;57639;52.410;-1.966;2022-09-02T08:08:11;20.50;60.10
61591;DHT22;57639;52.410;-1.966;2022-09-02T08:11:20;20.50;60.10
61591;DHT22;57639;52.410;-1.966;2022-09-02T08:14:31;20.50;60.40
61591;DHT22;57639;52.410;-1.966;2022-09-02T08:17:39;20.50;60.10
61591;DHT22;57639;52.410;-1.966;2022-09-02T08:20:47;20.50;60.10
61591;DHT22;57639;52.410;-1.966;2022-09-02T08:23:54;20.50;60.00
61591;DHT22;57639;52.410;-1.966;2022-09-02T08:27:04;20.50;60.10
61591;DHT22;57639;52.410;-1.966;2022-09-02T08:30:14;20.50;60.10
61591;DHT22;57639;52.410;-1.966;2022-09-02T08:33:22;20.50;60.00
61591;DHT22;57639;52.410;-1.966;2022-09-02T08:36:29;20.50;60.30
61591;DHT22;57639;52.410;-1.966;2022-09-02T08:39:38;20.40;60.20
61591;DHT22;57639;52.410;-1.966;2022-09-02T08:42:47;20.50;60.10
61591;DHT22;57639;52.410;-1.966;2022-09-02T08:45:58;20.50;60.20
61591;DHT22;57639;52.410;-1.966;2022-09-02T08:49:14;20.50;60.20
61591;DHT22;57639;52.410;-1.966;2022-09-02T08:52:28;20.50;60.30
61591;DHT22;57639;52.410;-1.966;2022-09-02T08:55:43;20.50;60.20
61591;DHT22;57639;52.410;-1.966;2022-09-02T08:58:52;20.40;60.30
61591;DHT22;57639;52.410;-1.966;2022-09-02T09:02:07;20.50;60.30
61591;DHT22;57639;52.410;-1.966;2022-09-02T09:05:27;20.50;60.20
61591;DHT22;57639;52.410;-1.966;2022-09-02T09:08:44;20.50;60.30
61591;DHT22;57639;52.410;-1.966;2022-09-02T09:12:00;20.50;60.10
61591;DHT22;57639;52.410;-1.966;2022-09-02T09:15:14;20.50;60.10
61591;DHT22;57639;52.410;-1.966;2022-09-02T09:18:32;20.50;60.20
61591;DHT22;57639;52.410;-1.966;2022-09-02T09:21:43;20.50;60.30
61591;DHT22;57639;52.410;-1.966;2022-09-02T09:24:51;20.60;60.20
61591;DHT22;57639;52.410;-1.966;2022-09-02T09:27:59;20.60;60.00
61591;DHT22;57639;52.410;-1.966;2022-09-02T09:31:13;20.60;60.00
61591;DHT22;57639;52.410;-1.966;2022-09-02T09:34:54;20.60;60.00
61591;DHT22;57639;52.410;-1.966;2022-09-02T09:38:11;20.60;60.10
61591;DHT22;57639;52.410;-1.966;2022-09-02T09:41:21;20.60;60.20
61591;DHT22;57639;52.410;-1.966;2022-09-02T09:44:40;20.60;60.10
61591;DHT22;57639;52.410;-1.966;2022-09-02T09:51:33;20.80;60.60
61591;DHT22;57639;52.410;-1.966;2022-09-02T09:55:15;20.80;61.00
61591;DHT22;57639;52.410;-1.966;2022-09-02T09:58:32;20.80;61.20
61591;DHT22;57639;52.410;-1.966;2022-09-02T10:01:49;20.80;61.50
61591;DHT22;57639;52.410;-1.966;2022-09-02T10:05:10;20.80;61.40
61591;DHT22;57639;52.410;-1.966;2022-09-02T10:08:23;20.90;61.30
61591;DHT22;57639;52.410;-1.966;2022-09-02T10:11:33;20.80;61.40
61591;DHT22;57639;52.410;-1.966;2022-09-02T10:14:43;20.90;61.50
61591;DHT22;57639;52.410;-1.966;2022-09-02T10:17:56;20.80;61.40
61591;DHT22;57639;52.410;-1.966;2022-09-02T10:21:13;20.80;61.40
61591;DHT22;57639;52.410;-1.966;2022-09-02T10:24:55;20.80;61.40
61591;DHT22;57639;52.410;-1.966;2022-09-02T10:28:16;20.90;61.30
61591;DHT22;57639;52.410;-1.966;2022-09-02T10:31:30;20.90;61.20
61591;DHT22;57639;52.410;-1.966;2022-09-02T10:34:50;20.90;61.20
61591;DHT22;57639;52.410;-1.966;2022-09-02T10:38:11;20.90;61.10
61591;DHT22;57639;52.410;-1.966;2022-09-02T10:41:37;21.00;61.00
61591;DHT22;57639;52.410;-1.966;2022-09-02T10:45:03;20.90;61.00
61591;DHT22;57639;52.410;-1.966;2022-09-02T10:48:33;20.90;61.00
61591;DHT22;57639;52.410;-1.966;2022-09-02T10:51:52;20.90;61.00
61591;DHT22;57639;52.410;-1.966;2022-09-02T10:55:13;20.90;61.00
61591;DHT22;57639;52.410;-1.966;2022-09-02T10:58:40;20.90;60.90
61591;DHT22;57639;52.410;-1.966;2022-09-02T11:01:53;21.00;60.80
61591;DHT22;57639;52.410;-1.966;2022-09-02T11:05:06;21.00;60.80
61591;DHT22;57639;52.410;-1.966;2022-09-02T11:08:22;21.00;60.80
61591;DHT22;57639;52.410;-1.966;2022-09-02T11:11:38;21.00;60.80
61591;DHT22;57639;52.410;-1.966;2022-09-02T11:14:58;21.00;60.80
61591;DHT22;57639;52.410;-1.966;2022-09-02T11:18:15;21.00;60.70
61591;DHT22;57639;52.410;-1.966;2022-09-02T11:21:33;21.10;60.60
61591;DHT22;57639;52.410;-1.966;2022-09-02T11:24:49;21.10;60.70
61591;DHT22;57639;52.410;-1.966;2022-09-02T11:28:03;21.10;60.70
61591;DHT22;57639;52.410;-1.966;2022-09-02T11:31:20;21.10;60.70
61591;DHT22;57639;52.410;-1.966;2022-09-02T11:34:35;21.10;60.70
61591;DHT22;57639;52.410;-1.966;2022-09-02T11:37:47;21.20;60.60
61591;DHT22;57639;52.410;-1.966;2022-09-02T11:41:24;21.20;60.60
61591;DHT22;57639;52.410;-1.966;2022-09-02T11:45:07;21.20;60.60
61591;DHT22;57639;52.410;-1.966;2022-09-02T11:55:30;21.10;60.90
61591;DHT22;57639;52.410;-1.966;2022-09-02T11:58:43;21.10;60.90
61591;DHT22;57639;52.410;-1.966;2022-09-02T12:01:51;21.10;60.80
61591;DHT22;57639;52.410;-1.966;2022-09-02T12:09:10;21.10;60.70
61591;DHT22;57639;52.410;-1.966;2022-09-02T12:16:34;21.10;60.60
61591;DHT22;57639;52.410;-1.966;2022-09-02T12:19:45;21.10;60.60
61591;DHT22;57639;52.410;-1.966;2022-09-02T12:22:55;21.10;60.60
61591;DHT22;57639;52.410;-1.966;2022-09-02T12:26:06;21.10;60.50
61591;DHT22;57639;52.410;-1.966;2022-09-02T12:29:30;21.10;60.40
61591;DHT22;57639;52.410;-1.966;2022-09-02T12:33:02;21.10;60.30
61591;DHT22;57639;52.410;-1.966;2022-09-02T12:36:43;21.10;60.30
61591;DHT22;57639;52.410;-1.966;2022-09-02T12:39:54;21.20;60.40
61591;DHT22;57639;52.410;-1.966;2022-09-02T12:43:18;21.10;60.40
61591;DHT22;57639;52.410;-1.966;2022-09-02T12:46:47;21.20;60.30
61591;DHT22;57639;52.410;-1.966;2022-09-02T12:50:02;21.10;60.30
61591;DHT22;57639;52.410;-1.966;2022-09-02T12:53:28;21.10;60.30
61591;DHT22;57639;52.410;-1.966;2022-09-02T12:56:46;21.10;60.40
61591;DHT22;57639;52.410;-1.966;2022-09-02T12:59:58;21.00;60.40
61591;DHT22;57639;52.410;-1.966;2022-09-02T13:03:23;21.00;60.30
61591;DHT22;57639;52.410;-1.966;2022-09-02T13:06:47;21.00;60.40
61591;DHT22;57639;52.410;-1.966;2022-09-02T13:10:37;21.00;60.30
61591;DHT22;57639;52.410;-1.966;2022-09-02T13:17:46;21.10;60.30
61591;DHT22;57639;52.410;-1.966;2022-09-02T13:21:22;21.00;60.30
61591;DHT22;57639;52.410;-1.966;2022-09-02T13:25:10;21.00;60.30
61591;DHT22;57639;52.410;-1.966;2022-09-02T13:32:03;21.10;60.30
61591;DHT22;57639;52.410;-1.966;2022-09-02T13:35:24;21.00;60.20
61591;DHT22;57639;52.410;-1.966;2022-09-02T13:38:32;21.00;60.20
61591;DHT22;57639;52.410;-1.966;2022-09-02T13:41:44;21.10;60.20
61591;DHT22;57639;52.410;-1.966;2022-09-02T13:45:08;21.00;60.20
61591;DHT22;57639;52.410;-1.966;2022-09-02T13:48:17;21.00;60.20
61591;DHT22;57639;52.410;-1.966;2022-09-02T13:51:28;21.00;60.10
61591;DHT22;57639;52.410;-1.966;2022-09-02T13:54:36;21.10;60.10
61591;DHT22;57639;52.410;-1.966;2022-09-02T13:57:50;21.00;60.10
61591;DHT22;57639;52.410;-1.966;2022-09-02T14:01:18;21.10;60.20
61591;DHT22;57639;52.410;-1.966;2022-09-02T14:04:26;21.10;60.20
61591;DHT22;57639;52.410;-1.966;2022-09-02T14:07:40;21.00;60.10
61591;DHT22;57639;52.410;-1.966;2022-09-02T14:10:50;21.00;60.10
61591;DHT22;57639;52.410;-1.966;2022-09-02T14:13:58;21.10;60.10
61591;DHT22;57639;52.410;-1.966;2022-09-02T14:17:21;21.10;60.00
61591;DHT22;57639;52.410;-1.966;2022-09-02T14:20:29;21.10;60.00
61591;DHT22;57639;52.410;-1.966;2022-09-02T14:23:47;21.10;60.00
61591;DHT22;57639;52.410;-1.966;2022-09-02T14:26:56;21.10;59.90
61591;DHT22;57639;52.410;-1.966;2022-09-02T14:30:05;21.10;59.90
61591;DHT22;57639;52.410;-1.966;2022-09-02T14:33:22;21.10;59.90
61591;DHT22;57639;52.410;-1.966;2022-09-02T14:36:33;21.10;60.00
61591;DHT22;57639;52.410;-1.966;2022-09-02T14:39:53;21.00;59.90
61591;DHT22;57639;52.410;-1.966;2022-09-02T14:43:12;21.10;59.90
61591;DHT22;57639;52.410;-1.966;2022-09-02T14:46:28;21.10;59.90
61591;DHT22;57639;52.410;-1.966;2022-09-02T14:49:43;21.10;59.90
61591;DHT22;57639;52.410;-1.966;2022-09-02T14:52:56;21.00;59.90
61591;DHT22;57639;52.410;-1.966;2022-09-02T14:56:09;21.10;59.90
61591;DHT22;57639;52.410;-1.966;2022-09-02T14:59:17;21.10;59.90
61591;DHT22;57639;52.410;-1.966;2022-09-02T15:02:30;21.10;59.90
61591;DHT22;57639;52.410;-1.966;2022-09-02T15:05:38;21.10;59.90
61591;DHT22;57639;52.410;-1.966;2022-09-02T15:08:46;21.10;59.90
61591;DHT22;57639;52.410;-1.966;2022-09-02T15:11:56;21.10;59.90
61591;DHT22;57639;52.410;-1.966;2022-09-02T15:15:06;21.10;59.90
61591;DHT22;57639;52.410;-1.966;2022-09-02T15:18:14;21.10;59.90
61591;DHT22;57639;52.410;-1.966;2022-09-02T15:21:21;21.10;59.90
61591;DHT22;57639;52.410;-1.966;2022-09-02T15:24:29;21.10;59.90
61591;DHT22;57639;52.410;-1.966;2022-09-02T15:27:39;21.10;59.90
61591;DHT22;57639;52.410;-1.966;2022-09-02T15:30:46;21.10;59.90
61591;DHT22;57639;52.410;-1.966;2022-09-02T15:33:54;21.10;59.90
61591;DHT22;57639;52.410;-1.966;2022-09-02T15:37:02;21.10;59.90
61591;DHT22;57639;52.410;-1.966;2022-09-02T15:40:16;21.10;59.90
61591;DHT22;57639;52.410;-1.966;2022-09-02T15:43:26;21.10;59.90
61591;DHT22;57639;52.410;-1.966;2022-09-02T15:46:35;21.10;59.90
61591;DHT22;57639;52.410;-1.966;2022-09-02T15:49:43;21.10;59.90
61591;DHT22;57639;52.410;-1.966;2022-09-02T15:52:51;21.10;59.80
61591;DHT22;57639;52.410;-1.966;2022-09-02T15:55:58;21.10;59.80
61591;DHT22;57639;52.410;-1.966;2022-09-02T15:59:11;21.10;59.80
61591;DHT22;57639;52.410;-1.966;2022-09-02T16:02:19;21.10;59.80
61591;DHT22;57639;52.410;-1.966;2022-09-02T16:05:27;21.10;59.90
61591;DHT22;57639;52.410;-1.966;2022-09-02T16:08:35;21.10;59.90
61591;DHT22;57639;52.410;-1.966;2022-09-02T16:11:45;21.10;59.90
61591;DHT22;57639;52.410;-1.966;2022-09-02T16:14:55;21.10;59.90
61591;DHT22;57639;52.410;-1.966;2022-09-02T16:18:03;21.10;59.90
61591;DHT22;57639;52.410;-1.966;2022-09-02T16:21:11;21.00;59.90
61591;DHT22;57639;52.410;-1.966;2022-09-02T16:24:19;21.10;59.90
61591;DHT22;57639;52.410;-1.966;2022-09-02T16:27:26;21.10;59.90
61591;DHT22;57639;52.410;-1.966;2022-09-02T16:30:53;21.00;59.90
61591;DHT22;57639;52.410;-1.966;2022-09-02T16:34:03;21.00;60.00
61591;DHT22;57639;52.410;-1.966;2022-09-02T16:37:11;21.00;60.00
61591;DHT22;57639;52.410;-1.966;2022-09-02T16:40:18;21.00;60.00
61591;DHT22;57639;52.410;-1.966;2022-09-02T16:43:29;21.00;60.10
61591;DHT22;57639;52.410;-1.966;2022-09-02T16:46:43;21.00;60.10
61591;DHT22;57639;52.410;-1.966;2022-09-02T16:49:51;20.90;60.10
61591;DHT22;57639;52.410;-1.966;2022-09-02T16:52:59;21.00;60.00
61591;DHT22;57639;52.410;-1.966;2022-09-02T16:56:10;21.00;60.10
61591;DHT22;57639;52.410;-1.966;2022-09-02T16:59:18;20.90;60.10
61591;DHT22;57639;52.410;-1.966;2022-09-02T17:02:28;21.00;60.10
61591;DHT22;57639;52.410;-1.966;2022-09-02T17:05:36;21.00;60.10
61591;DHT22;57639;52.410;-1.966;2022-09-02T17:08:44;20.90;60.10
61591;DHT22;57639;52.410;-1.966;2022-09-02T17:11:52;20.90;60.10
61591;DHT22;57639;52.410;-1.966;2022-09-02T17:14:59;20.90;60.10
61591;DHT22;57639;52.410;-1.966;2022-09-02T17:18:09;20.90;60.10
61591;DHT22;57639;52.410;-1.966;2022-09-02T17:21:24;20.90;60.10
61591;DHT22;57639;52.410;-1.966;2022-09-02T17:24:32;20.90;60.10
61591;DHT22;57639;52.410;-1.966;2022-09-02T17:27:39;20.90;60.10
61591;DHT22;57639;52.410;-1.966;2022-09-02T17:30:47;20.90;60.20
61591;DHT22;57639;52.410;-1.966;2022-09-02T17:33:59;20.90;60.20
61591;DHT22;57639;52.410;-1.966;2022-09-02T17:37:07;20.90;60.20
61591;DHT22;57639;52.410;-1.966;2022-09-02T17:40:15;20.90;60.20
61591;DHT22;57639;52.410;-1.966;2022-09-02T17:43:40;20.90;60.20
61591;DHT22;57639;52.410;-1.966;2022-09-02T17:46:48;20.90;60.20
61591;DHT22;57639;52.410;-1.966;2022-09-02T17:49:59;20.90;60.20
61591;DHT22;57639;52.410;-1.966;2022-09-02T17:53:06;20.90;60.20
61591;DHT22;57639;52.410;-1.966;2022-09-02T17:56:38;20.80;60.20
61591;DHT22;57639;52.410;-1.966;2022-09-02T18:00:01;20.80;60.30
61591;DHT22;57639;52.410;-1.966;2022-09-02T18:06:53;20.80;60.30
61591;DHT22;57639;52.410;-1.966;2022-09-02T18:10:04;20.80;60.30
61591;DHT22;57639;52.410;-1.966;2022-09-02T18:13:15;20.80;60.40
61591;DHT22;57639;52.410;-1.966;2022-09-02T18:16:29;20.80;60.40
61591;DHT22;57639;52.410;-1.966;2022-09-02T18:19:58;20.80;60.30
61591;DHT22;57639;52.410;-1.966;2022-09-02T18:23:26;20.80;60.40
61591;DHT22;57639;52.410;-1.966;2022-09-02T18:26:49;20.80;60.40
61591;DHT22;57639;52.410;-1.966;2022-09-02T18:30:06;20.80;60.40
61591;DHT22;57639;52.410;-1.966;2022-09-02T18:33:42;20.80;60.40
61591;DHT22;57639;52.410;-1.966;2022-09-02T18:37:00;20.80;60.40
61591;DHT22;57639;52.410;-1.966;2022-09-02T18:40:22;20.70;60.50
61591;DHT22;57639;52.410;-1.966;2022-09-02T18:43:38;20.80;60.50
61591;DHT22;57639;52.410;-1.966;2022-09-02T18:46:53;20.80;60.50
61591;DHT22;57639;52.410;-1.966;2022-09-02T18:50:04;20.70;60.50
61591;DHT22;57639;52.410;-1.966;2022-09-02T18:53:35;20.70;60.50
61591;DHT22;57639;52.410;-1.966;2022-09-02T18:56:53;20.70;60.50
61591;DHT22;57639;52.410;-1.966;2022-09-02T19:00:06;20.70;60.50
61591;DHT22;57639;52.410;-1.966;2022-09-02T19:03:13;20.80;60.50
61591;DHT22;57639;52.410;-1.966;2022-09-02T19:06:23;20.70;60.50
61591;DHT22;57639;52.410;-1.966;2022-09-02T19:09:31;20.70;60.50
61591;DHT22;57639;52.410;-1.966;2022-09-02T19:12:39;20.70;60.50
61591;DHT22;57639;52.410;-1.966;2022-09-02T19:15:50;20.70;60.50
61591;DHT22;57639;52.410;-1.966;2022-09-02T19:19:06;20.70;60.50
61591;DHT22;57639;52.410;-1.966;2022-09-02T19:22:15;20.70;60.50
61591;DHT22;57639;52.410;-1.966;2022-09-02T19:25:28;20.70;60.70
61591;DHT22;57639;52.410;-1.966;2022-09-02T19:28:40;20.80;60.50
61591;DHT22;57639;52.410;-1.966;2022-09-02T19:31:48;20.80;60.60
61591;DHT22;57639;52.410;-1.966;2022-09-02T19:34:58;20.80;60.60
61591;DHT22;57639;52.410;-1.966;2022-09-02T19:38:08;20.80;60.70
61591;DHT22;57639;52.410;-1.966;2022-09-02T19:41:18;20.80;60.80
61591;DHT22;57639;52.410;-1.966;2022-09-02T19:44:30;20.90;61.10
61591;DHT22;57639;52.410;-1.966;2022-09-02T19:47:37;20.90;61.20
61591;DHT22;57639;52.410;-1.966;2022-09-02T19:51:08;20.80;61.00
61591;DHT22;57639;52.410;-1.966;2022-09-02T19:54:21;20.80;61.30
61591;DHT22;57639;52.410;-1.966;2022-09-02T19:57:29;20.80;61.40
61591;DHT22;57639;52.410;-1.966;2022-09-02T20:00:42;20.80;61.40
61591;DHT22;57639;52.410;-1.966;2022-09-02T20:03:51;20.80;61.40
61591;DHT22;57639;52.410;-1.966;2022-09-02T20:07:01;20.80;61.50
61591;DHT22;57639;52.410;-1.966;2022-09-02T20:10:10;20.80;61.40
61591;DHT22;57639;52.410;-1.966;2022-09-02T20:13:24;20.80;61.40
61591;DHT22;57639;52.410;-1.966;2022-09-02T20:16:35;20.80;61.40
61591;DHT22;57639;52.410;-1.966;2022-09-02T20:19:43;20.80;61.40
61591;DHT22;57639;52.410;-1.966;2022-09-02T20:22:54;20.80;61.40
61591;DHT22;57639;52.410;-1.966;2022-09-02T20:26:14;20.90;61.40